Time;durP1;ratioP1;P1;durP2;ratioP2;P2;SDS_P1;SDS_P2;PMS_P1;PMS_P2;Temp;Humidity;BMP_temperature;BMP_pressure;BME280_temperature;BME280_humidity;BME280_pressure;Samples;Min_cycle;Max_cycle;Signal;HPM_P1;HPM_P2
2021/05/05 00:14:09;;;;;;;5.53;2.28;;;;;;;18.94;38.95;99230.34;30998884;28;20019;-62
2021/05/05 00:29:10;;;;;;;5.72;2.00;;;;;;;18.90;39.07;99205.34;30997356;28;20401;-61
2021/05/05 00:44:11;;;;;;;3.60;1.70;;;;;;;18.84;39.15;99204.19;31009035;28;20485;-61
2021/05/05 00:59:12;;;;;;;4.83;2.07;;;;;;;18.80;39.49;99207.34;30991842;28;20290;-61
2021/05/05 01:14:13;;;;;;;3.53;1.80;;;;;;;18.75;39.99;99207.00;30992779;28;20283;-61
2021/05/05 01:29:14;;;;;;;3.00;1.57;;;;;;;18.66;40.14;99206.16;30992097;28;20281;-61
2021/05/05 01:44:15;;;;;;;3.23;1.60;;;;;;;18.60;39.89;99180.53;30951789;28;20298;-61
2021/05/05 01:59:16;;;;;;;3.45;2.10;;;;;;;18.53;40.90;99176.91;30870698;28;20302;-61
2021/05/05 02:14:17;;;;;;;3.28;1.75;;;;;;;18.52;40.12;99186.59;30888652;28;20038;-61
2021/05/05 02:29:18;;;;;;;4.73;1.70;;;;;;;18.48;40.52;99173.94;30889946;28;20334;-60
2021/05/05 02:44:19;;;;;;;2.85;1.60;;;;;;;18.47;40.26;99167.88;30928736;28;20316;-61
2021/05/05 02:59:24;;;;;;;3.43;1.53;;;;;;;18.45;40.19;99155.88;30938837;28;20055;-61
2021/05/05 03:14:25;;;;;;;3.17;1.50;;;;;;;18.41;40.32;99156.19;30885955;28;20633;-61
2021/05/05 03:29:26;;;;;;;3.70;1.50;;;;;;;18.39;40.30;99159.97;30884132;28;20093;-61
2021/05/05 03:44:27;;;;;;;3.77;1.80;;;;;;;18.38;40.37;99160.97;30922385;28;20052;-61
2021/05/05 03:59:28;;;;;;;3.22;1.52;;;;;;;18.36;40.13;99157.69;31000493;28;20340;-60
2021/05/05 04:14:30;;;;;;;3.90;1.70;;;;;;;18.37;39.92;99162.78;30999223;28;20096;-61
2021/05/05 04:29:31;;;;;;;4.50;2.00;;;;;;;18.40;40.05;99169.53;30996072;28;20297;-60
2021/05/05 04:44:32;;;;;;;2.73;1.60;;;;;;;18.41;39.83;99177.22;30954631;28;20049;-60
2021/05/05 04:59:33;;;;;;;2.97;1.40;;;;;;;18.41;39.98;99171.16;30875669;28;20290;-60
2021/05/05 05:14:36;;;;;;;2.93;1.43;;;;;;;18.47;39.43;99178.41;30966724;28;20035;-60
2021/05/05 05:29:37;;;;;;;3.40;1.42;;;;;;;18.55;39.66;99186.25;30989453;28;20305;-59
2021/05/05 05:44:38;;;;;;;3.33;1.30;;;;;;;18.52;39.29;99185.78;31015351;28;20054;-60
2021/05/05 05:59:39;;;;;;;4.63;1.63;;;;;;;18.50;40.25;99207.00;30999221;28;20293;-59
2021/05/05 06:14:40;;;;;;;6.65;2.08;;;;;;;18.64;39.94;99218.66;30987555;28;20355;-61
2021/05/05 06:29:41;;;;;;;5.43;2.20;;;;;;;18.80;40.46;99204.69;31005791;28;20034;-61
2021/05/05 06:44:42;;;;;;;10.50;2.93;;;;;;;18.89;40.22;99211.59;30998818;28;20325;-62
2021/05/05 06:59:43;;;;;;;8.27;2.90;;;;;;;18.57;38.81;99209.78;30995611;28;20297;-57
2021/05/05 07:14:44;;;;;;;5.03;1.93;;;;;;;18.46;36.66;99221.47;31014158;28;20281;-60
2021/05/05 07:29:45;;;;;;;4.67;1.80;;;;;;;19.03;36.54;99229.38;31001359;28;20308;-55
2021/05/05 08:00:06;;;;;;;5.07;1.50;;;;;;;19.52;36.30;99236.31;30989755;28;20105;-58
2021/05/05 08:15:07;;;;;;;4.05;1.50;;;;;;;20.11;35.90;99256.13;30999265;28;20050;-59
2021/05/05 08:30:09;;;;;;;3.88;1.30;;;;;;;20.49;35.07;99243.84;31000561;28;20464;-59
2021/05/05 08:45:14;;;;;;;4.35;1.38;;;;;;;20.49;35.14;99249.94;30985757;28;20046;-56
2021/05/05 09:00:17;;;;;;;2.40;1.20;;;;;;;20.46;35.34;99254.75;30971414;28;20039;-55
2021/05/05 09:15:24;;;;;;;3.13;1.25;;;;;;;20.67;34.03;99272.63;30986478;28;20116;-60
2021/05/05 09:30:25;;;;;;;2.28;1.02;;;;;;;20.92;33.93;99278.50;30977876;28;20393;-59
2021/05/05 09:45:31;;;;;;;2.77;1.10;;;;;;;20.89;34.56;99255.06;30951824;28;20038;-57
2021/05/05 10:00:32;;;;;;;3.03;1.20;;;;;;;20.40;35.90;99313.50;30969718;28;20302;-54
2021/05/05 10:15:36;;;;;;;1.97;0.87;;;;;;;21.08;35.33;99269.63;30982225;28;20045;-55
2021/05/05 10:30:37;;;;;;;4.43;1.20;;;;;;;21.46;32.48;99273.06;30970259;28;20289;-56
2021/05/05 10:45:39;;;;;;;3.05;1.70;;;;;;;21.26;33.86;99277.19;30980372;28;20046;-53
2021/05/05 11:00:54;;;;;;;4.50;2.22;;;;;;;21.19;34.87;99273.63;30971345;28;20039;-54
2021/05/05 11:15:55;;;;;;;4.65;2.30;;;;;;;20.96;35.03;99279.81;30972682;28;20038;-54
2021/05/05 11:30:57;;;;;;;6.35;2.30;;;;;;;21.26;34.22;99285.94;30989440;28;20038;-54
2021/05/05 11:46:00;;;;;;;4.35;2.28;;;;;;;21.19;34.60;99292.97;30964791;28;20078;-59
2021/05/05 12:01:01;;;;;;;6.63;2.05;;;;;;;21.27;35.07;99313.19;30897589;28;20088;-58
2021/05/05 12:16:10;;;;;;;4.97;1.87;;;;;;;21.47;35.38;99322.25;30974471;28;20034;-58
2021/05/05 12:31:12;;;;;;;3.25;1.85;;;;;;;21.15;34.81;99333.13;30974317;28;20794;-51
2021/05/05 12:46:32;;;;;;;4.30;1.83;;;;;;;21.18;35.44;99336.22;30970841;28;20476;-53
2021/05/05 13:01:34;;;;;;;4.03;1.95;;;;;;;21.15;35.67;99354.25;30986901;28;20484;-51
2021/05/05 13:31:55;;;;;;;3.55;1.67;;;;;;;21.09;36.89;99398.06;30985347;28;20132;-55
2021/05/05 14:02:17;;;;;;;3.55;1.92;;;;;;;20.78;36.70;99400.75;30967448;28;20058;-53
2021/05/05 14:17:18;;;;;;;4.60;1.43;;;;;;;20.64;37.25;99395.22;30996340;28;20046;-57
2021/05/05 14:32:19;;;;;;;3.13;1.67;;;;;;;20.59;37.46;99392.28;30992581;28;20295;-58
2021/05/05 15:02:40;;;;;;;4.85;2.42;;;;;;;20.41;36.53;99407.50;30989437;28;20679;-60
2021/05/05 15:18:08;;;;;;;5.25;2.10;;;;;;;20.16;37.77;99465.66;30986508;28;20484;-62
2021/05/05 15:48:21;;;;;;;3.95;2.00;;;;;;;20.06;38.18;99478.22;30979177;28;20054;-61
2021/05/05 16:18:53;;;;;;;4.25;1.85;;;;;;;19.86;37.84;99483.88;31002649;28;20348;-53
2021/05/05 16:49:06;;;;;;;2.90;0.80;;;;;;;16.15;38.90;99607.56;30952291;28;20073;-57
2021/05/05 17:19:42;;;;;;;2.42;1.10;;;;;;;18.86;37.18;99588.41;30952120;28;20116;-55
2021/05/05 18:20:47;;;;;;;3.45;1.70;;;;;;;20.13;35.21;99670.94;30916824;28;20046;-59
2021/05/05 18:35:48;;;;;;;4.20;1.83;;;;;;;20.08;35.47;99705.72;30978244;28;20589;-58
2021/05/05 19:22:01;;;;;;;4.32;2.00;;;;;;;19.82;36.82;99762.03;30992515;28;20046;-59
2021/05/05 19:37:58;;;;;;;7.43;2.17;;;;;;;19.66;37.09;99788.31;31008420;28;20073;-58
2021/05/05 20:23:45;;;;;;;3.30;1.63;;;;;;;19.48;36.78;99853.47;31000474;28;20031;-59
2021/05/05 21:40:21;;;;;;;5.07;1.90;;;;;;;19.40;36.33;99935.91;30930370;28;20058;-58
2021/05/05 23:26:52;;;;;;;4.35;2.28;;;;;;;18.95;37.54;99971.91;30871471;28;20097;-61
